RJTQ(METAR)
05/30 16:00
RJTQ 300700Z 14004KT 9999 SCT030 BKNXXX 24/18 Q1020 RMK A3012=
戻る
トップページへ戻る
IMOC Co,.Ltd.